createdAt,value
2022-08-05T00:01:01.036Z,98740.78
2022-08-05T00:03:46.547Z,98739.84
2022-08-05T00:06:35.993Z,98740.88
2022-08-05T00:09:23.178Z,98740.07
2022-08-05T00:12:13.055Z,98739.12
2022-08-05T00:14:59.258Z,98735.89
2022-08-05T00:17:48.410Z,98732.39
2022-08-05T00:20:36.393Z,98731.58
2022-08-05T00:23:44.557Z,98746.40
2022-08-05T00:26:14.506Z,98737.70
2022-08-05T00:29:03.763Z,98737.78
2022-08-05T00:32:10.957Z,98740.53
2022-08-05T00:34:56.351Z,98734.46
2022-08-05T00:37:35.864Z,98730.38
2022-08-05T00:40:26.875Z,98727.38
2022-08-05T00:43:09.125Z,98730.06
2022-08-05T00:45:58.195Z,98729.36
2022-08-05T00:48:51.217Z,98727.66
2022-08-05T00:51:50.935Z,98730.44
2022-08-05T00:54:28.185Z,98732.52
2022-08-05T00:57:15.726Z,98738.55
2022-08-05T01:00:07.227Z,98744.11
2022-08-05T01:02:56.949Z,98748.80
2022-08-05T01:05:44.545Z,98741.38
2022-08-05T01:08:43.195Z,98741.44
2022-08-05T01:11:33.713Z,98736.53
2022-08-05T01:14:28.395Z,98740.63
2022-08-05T01:17:27.648Z,98747.42
2022-08-05T01:20:34.660Z,98735.74
2022-08-05T01:23:53.209Z,98731.70
2022-08-05T01:27:17.666Z,98740.14
2022-08-05T01:30:02.706Z,98738.31
2022-08-05T01:32:53.161Z,98727.22
2022-08-05T01:35:51.757Z,98724.94
2022-08-05T01:38:30.340Z,98728.37
2022-08-05T01:41:20.975Z,98722.59
2022-08-05T01:44:09.853Z,98720.71
2022-08-05T01:46:57.897Z,98720.83
2022-08-05T01:50:02.007Z,98716.09
2022-08-05T01:52:38.083Z,98718.52
2022-08-05T01:55:26.473Z,98719.59
2022-08-05T01:58:15.897Z,98718.08
2022-08-05T02:01:04.458Z,98710.56
2022-08-05T02:03:53.326Z,98710.69
2022-08-05T02:06:41.017Z,98711.70
2022-08-05T02:09:30.520Z,98707.23
2022-08-05T02:12:25.536Z,98707.84
2022-08-05T02:15:24.140Z,98706.77
2022-08-05T02:18:30.758Z,98706.37
2022-08-05T02:21:15.022Z,98703.49
2022-08-05T02:23:57.937Z,98702.11
2022-08-05T02:26:55.882Z,98695.28
2022-08-05T02:29:58.554Z,98695.05
2022-08-05T02:32:34.739Z,98688.55
2022-08-05T02:35:28.079Z,98690.70
2022-08-05T02:38:19.176Z,98685.82
2022-08-05T02:41:06.379Z,98680.58
2022-08-05T02:44:02.307Z,98680.08
2022-08-05T02:46:58.331Z,98679.27
2022-08-05T02:49:40.608Z,98681.66
2022-08-05T02:52:30.623Z,98674.03
2022-08-05T02:55:17.564Z,98675.27
2022-08-05T02:58:10.567Z,98670.61
2022-08-05T03:00:57.130Z,98670.61
2022-08-05T03:04:03.061Z,98667.91
2022-08-05T03:06:55.813Z,98665.17
2022-08-05T03:09:36.415Z,98666.26
2022-08-05T03:12:31.144Z,98665.36
2022-08-05T03:15:18.610Z,98658.32
2022-08-05T03:18:06.295Z,98661.20
2022-08-05T03:20:55.363Z,98651.34
2022-08-05T03:23:44.116Z,98653.97
2022-08-05T03:26:33.944Z,98654.47
2022-08-05T03:29:21.424Z,98647.39
2022-08-05T03:32:10.160Z,98650.84
2022-08-05T03:34:58.512Z,98645.77
2022-08-05T03:37:46.945Z,98648.50
2022-08-05T03:40:35.742Z,98649.80
2022-08-05T03:44:10.016Z,98642.58
2022-08-05T03:46:15.640Z,98637.64
2022-08-05T03:49:04.551Z,98636.98
2022-08-05T03:52:50.388Z,98643.33
2022-08-05T03:54:56.728Z,98642.48
2022-08-05T03:57:43.057Z,98641.27
2022-08-05T04:00:32.482Z,98640.39
2022-08-05T04:03:28.280Z,98635.09
2022-08-05T04:06:10.200Z,98646.84
2022-08-05T04:08:58.137Z,98644.10
2022-08-05T04:11:50.826Z,98646.10
2022-08-05T04:14:35.811Z,98646.47
2022-08-05T04:17:23.795Z,98646.22
2022-08-05T04:20:20.922Z,98640.53
2022-08-05T04:23:12.224Z,98646.31
2022-08-05T04:26:00.456Z,98643.13
2022-08-05T04:28:51.263Z,98643.81
2022-08-05T04:31:38.767Z,98643.20
2022-08-05T04:34:33.886Z,98630.98
2022-08-05T04:37:15.952Z,98631.23
2022-08-05T04:40:04.167Z,98625.25
2022-08-05T04:42:52.457Z,98627.46
2022-08-05T04:45:48.073Z,98633.05
2022-08-05T04:48:29.240Z,98631.06
2022-08-05T04:51:17.730Z,98626.98
2022-08-05T04:54:05.600Z,98627.27
2022-08-05T04:56:57.434Z,98624.24
2022-08-05T04:59:42.177Z,98630.37
2022-08-05T05:02:41.429Z,98631.52
2022-08-05T05:05:28.236Z,98633.50
2022-08-05T05:08:14.182Z,98634.45
2022-08-05T05:10:59.768Z,98638.36
2022-08-05T05:13:47.537Z,98636.11
2022-08-05T05:16:36.192Z,98642.48
2022-08-05T05:19:27.339Z,98643.20
2022-08-05T05:22:23.382Z,98638.33
2022-08-05T05:25:17.074Z,98645.21
2022-08-05T05:27:53.876Z,98645.72
2022-08-05T05:30:42.401Z,98649.39
2022-08-05T05:33:29.831Z,98646.59
2022-08-05T05:36:18.905Z,98648.48
2022-08-05T05:39:09.390Z,98649.75
2022-08-05T05:41:56.417Z,98649.98
2022-08-05T05:44:45.888Z,98647.36
2022-08-05T05:48:07.167Z,98648.53
2022-08-05T05:50:22.368Z,98654.13
2022-08-05T05:53:21.937Z,98654.70
2022-08-05T05:56:03.242Z,98645.76
2022-08-05T05:58:50.761Z,98647.24
2022-08-05T06:01:41.423Z,98647.14
2022-08-05T06:04:29.641Z,98645.39
2022-08-05T06:07:17.184Z,98646.66
2022-08-05T06:10:10.205Z,98641.67
2022-08-05T06:12:56.193Z,98640.88
2022-08-05T06:16:29.864Z,98641.09
2022-08-05T06:18:36.476Z,98646.14
2022-08-05T06:21:23.056Z,98644.16
2022-08-05T06:24:12.775Z,98651.61
2022-08-05T06:27:01.362Z,98647.58
2022-08-05T06:30:04.406Z,98656.04
2022-08-05T06:32:38.234Z,98654.23
2022-08-05T06:36:07.184Z,98654.03
2022-08-05T06:38:16.384Z,98653.66
2022-08-05T06:41:03.840Z,98655.47
2022-08-05T06:44:00.290Z,98651.42
2022-08-05T06:46:40.680Z,98650.63
2022-08-05T06:50:01.402Z,98644.37
2022-08-05T06:52:36.681Z,98648.38
2022-08-05T06:55:08.712Z,98650.00
2022-08-05T06:57:58.119Z,98651.19
2022-08-05T07:00:45.192Z,98650.99
2022-08-05T07:03:34.639Z,98638.88
2022-08-05T07:06:23.480Z,98644.44
2022-08-05T07:09:11.076Z,98642.80
2022-08-05T07:12:00.436Z,98643.17
2022-08-05T07:15:05.072Z,98637.30
2022-08-05T07:18:02.207Z,98641.66
2022-08-05T07:20:44.264Z,98634.72
2022-08-05T07:23:32.368Z,98633.84
2022-08-05T07:26:22.881Z,98636.04
2022-08-05T07:29:09.552Z,98637.19
2022-08-05T07:31:57.488Z,98634.92
2022-08-05T07:34:45.280Z,98622.52
2022-08-05T07:37:37.525Z,98633.36
2022-08-05T07:40:32.544Z,98631.34
2022-08-05T07:43:20.528Z,98627.58
2022-08-05T07:46:03.648Z,98634.48
2022-08-05T07:49:03.506Z,98645.55
2022-08-05T07:51:53.120Z,98635.50
2022-08-05T07:54:30.943Z,98627.58
2022-08-05T07:57:42.056Z,98640.27
2022-08-05T08:00:11.424Z,98633.31
2022-08-05T08:03:15.167Z,98638.66
2022-08-05T08:05:49.667Z,98638.78
2022-08-05T08:08:36.547Z,98626.23
2022-08-05T08:11:27.654Z,98637.77
2022-08-05T08:14:19.023Z,98636.43
2022-08-05T08:17:03.652Z,98632.25
2022-08-05T08:20:22.360Z,98637.73
2022-08-05T08:22:40.363Z,98632.88
2022-08-05T08:25:59.244Z,98634.58
2022-08-05T08:28:36.673Z,98628.48
2022-08-05T08:31:08.650Z,98625.46
2022-08-05T08:33:56.364Z,98619.20
2022-08-05T08:36:52.419Z,98623.72
2022-08-05T08:39:37.413Z,98615.94
2022-08-05T08:42:34.608Z,98614.37
2022-08-05T08:45:18.096Z,98610.44
2022-08-05T08:48:07.458Z,98609.47
2022-08-05T08:51:23.189Z,98610.08
2022-08-05T08:53:45.049Z,98617.61
2022-08-05T08:56:34.060Z,98604.98
2022-08-05T08:59:21.785Z,98611.14
2022-08-05T09:02:10.961Z,98602.20
2022-08-05T09:05:16.899Z,98612.01
2022-08-05T09:07:57.312Z,98606.16
2022-08-05T09:10:37.819Z,98607.56
2022-08-05T09:13:31.814Z,98609.55
2022-08-05T09:16:16.830Z,98605.53
2022-08-05T09:19:06.921Z,98598.75
2022-08-05T09:22:23.235Z,98603.56
2022-08-05T09:24:45.121Z,98594.20
2022-08-05T09:28:03.961Z,98599.80
2022-08-05T09:30:27.208Z,98594.34
2022-08-05T09:33:15.324Z,98599.30
2022-08-05T09:36:11.807Z,98604.70
2022-08-05T09:38:59.856Z,98594.94
2022-08-05T09:42:03.928Z,98593.91
2022-08-05T09:44:56.219Z,98603.53
2022-08-05T09:47:56.295Z,98597.86
2022-08-05T09:50:44.486Z,98596.97
2022-08-05T09:53:53.561Z,98600.02
2022-08-05T09:56:33.615Z,98593.88
2022-08-05T09:59:24.003Z,98601.53
2022-08-05T10:02:12.914Z,98601.25
2022-08-05T10:05:07.959Z,98593.98
2022-08-05T10:08:35.172Z,98590.05
2022-08-05T10:10:54.084Z,98584.63
2022-08-05T10:13:47.457Z,98587.88
2022-08-05T10:16:34.081Z,98588.25
2022-08-05T10:19:23.462Z,98586.66
2022-08-05T10:22:15.613Z,98575.46
2022-08-05T10:25:02.040Z,98573.28
2022-08-05T10:28:13.128Z,98572.83
2022-08-05T10:31:20.783Z,98567.64
2022-08-05T10:33:35.198Z,98564.48
2022-08-05T10:36:23.424Z,98562.41
2022-08-05T10:39:25.176Z,98561.64
2022-08-05T10:42:13.590Z,98556.38
2022-08-05T10:45:01.185Z,98556.88
2022-08-05T10:48:29.174Z,98549.63
2022-08-05T10:53:58.211Z,98540.05
2022-08-05T10:56:52.733Z,98540.81
2022-08-05T11:00:02.606Z,98543.58
2022-08-05T11:02:38.021Z,98537.28
2022-08-05T11:05:18.712Z,98534.54
2022-08-05T11:08:36.658Z,98537.61
2022-08-05T11:11:18.689Z,98539.08
2022-08-05T11:14:06.276Z,98541.58
2022-08-05T11:17:58.705Z,98545.30
2022-08-05T11:20:44.590Z,98531.96
2022-08-05T11:24:03.913Z,98532.81
2022-08-05T11:26:49.576Z,98524.31
2022-08-05T11:29:42.993Z,98530.80
2022-08-05T11:32:31.491Z,98531.11
2022-08-05T11:36:08.384Z,98525.03
2022-08-05T11:38:51.895Z,98521.80
2022-08-05T11:42:01.284Z,98520.27
2022-08-05T11:44:53.328Z,98520.73
2022-08-05T11:47:49.060Z,98524.22
2022-08-05T11:50:14.630Z,98515.38
2022-08-05T11:53:06.362Z,98521.25
2022-08-05T11:55:59.270Z,98513.38
2022-08-05T11:58:52.871Z,98522.91
2022-08-05T12:01:36.653Z,98516.30
2022-08-05T12:04:27.585Z,98508.70
2022-08-05T12:07:18.394Z,98511.14
2022-08-05T12:10:11.574Z,98511.40
2022-08-05T12:13:01.075Z,98506.86
2022-08-05T12:15:50.466Z,98505.78
2022-08-05T12:18:39.980Z,98506.53
2022-08-05T12:21:33.834Z,98507.24
2022-08-05T12:24:24.647Z,98498.48
2022-08-05T12:27:21.643Z,98492.55
2022-08-05T12:30:05.193Z,98492.94
2022-08-05T12:32:54.113Z,98490.03
2022-08-05T12:35:43.537Z,98489.90
2022-08-05T12:38:32.665Z,98486.02
2022-08-05T12:41:21.536Z,98489.96
2022-08-05T12:44:14.419Z,98491.37
2022-08-05T12:47:01.806Z,98484.89
2022-08-05T12:50:03.283Z,98482.40
2022-08-05T12:52:42.271Z,98479.43
2022-08-05T12:55:32.807Z,98490.08
2022-08-05T12:58:50.870Z,98487.71
2022-08-05T13:02:03.285Z,98473.56
2022-08-05T13:04:07.430Z,98480.56
2022-08-05T13:06:57.664Z,98482.45
2022-08-05T13:09:56.719Z,98480.38
2022-08-05T13:12:57.291Z,98472.94
2022-08-05T13:15:41.922Z,98479.23
2022-08-05T13:18:23.989Z,98473.49
2022-08-05T13:21:11.152Z,98478.58
2022-08-05T13:23:59.697Z,98474.38
2022-08-05T13:26:50.776Z,98466.73
2022-08-05T13:29:38.147Z,98475.28
2022-08-05T13:32:33.060Z,98466.75
2022-08-05T13:35:22.215Z,98464.00
2022-08-05T13:38:06.059Z,98465.39
2022-08-05T13:40:54.050Z,98460.80
2022-08-05T13:43:45.063Z,98455.61
2022-08-05T13:46:50.781Z,98456.49
2022-08-05T13:49:20.441Z,98446.36
2022-08-05T13:52:20.120Z,98449.37
2022-08-05T13:55:09.743Z,98448.47
2022-08-05T13:57:57.224Z,98440.64
2022-08-05T14:00:44.304Z,98448.27
2022-08-05T14:03:33.546Z,98446.77
2022-08-05T14:06:26.421Z,98438.36
2022-08-05T14:09:09.936Z,98432.92
2022-08-05T14:12:04.114Z,98435.34
2022-08-05T14:14:48.241Z,98433.13
2022-08-05T14:17:37.547Z,98428.63
2022-08-05T14:20:27.316Z,98430.03
2022-08-05T14:23:18.957Z,98432.55
2022-08-05T14:26:04.858Z,98435.27
2022-08-05T14:28:52.738Z,98427.34
2022-08-05T14:32:02.275Z,98429.16
2022-08-05T14:34:29.106Z,98424.38
2022-08-05T14:37:18.384Z,98418.14
2022-08-05T14:40:06.961Z,98421.73
2022-08-05T14:42:54.433Z,98423.23
2022-08-05T14:45:43.580Z,98421.48
2022-08-05T14:48:33.317Z,98419.95
2022-08-05T14:51:19.513Z,98416.30
2022-08-05T14:54:27.724Z,98416.28
2022-08-05T14:56:58.652Z,98418.72
2022-08-05T14:59:46.321Z,98411.86
2022-08-05T15:02:35.077Z,98405.33
2022-08-05T15:05:29.884Z,98410.94
2022-08-05T15:08:17.834Z,98401.95
2022-08-05T15:11:01.216Z,98404.07
2022-08-05T15:13:50.384Z,98396.32
2022-08-05T15:16:38.210Z,98404.89
2022-08-05T15:19:27.096Z,98403.92
2022-08-05T15:22:16.205Z,98399.16
2022-08-05T15:25:13.727Z,98391.82
2022-08-05T15:27:54.820Z,98388.02
2022-08-05T15:30:41.744Z,98385.33
2022-08-05T15:34:04.545Z,98389.58
2022-08-05T15:36:24.204Z,98384.66
2022-08-05T15:41:02.713Z,98381.95
2022-08-05T15:41:59.459Z,98372.42
2022-08-05T15:44:46.423Z,98375.47
2022-08-05T15:47:35.948Z,98376.22
2022-08-05T15:50:25.189Z,98381.03
2022-08-05T15:53:12.677Z,98385.08
2022-08-05T15:56:02.796Z,98384.58
2022-08-05T15:58:50.585Z,98379.16
2022-08-05T16:01:39.865Z,98383.48
2022-08-05T16:04:27.113Z,98378.98
2022-08-05T16:07:15.208Z,98377.11
2022-08-05T16:10:02.724Z,98382.56
2022-08-05T16:12:50.758Z,98382.66
2022-08-05T16:15:40.107Z,98378.61
2022-08-05T16:18:29.598Z,98382.21
2022-08-05T16:21:16.936Z,98384.93
2022-08-05T16:24:04.374Z,98386.17
2022-08-05T16:26:58.905Z,98383.15
2022-08-05T16:29:50.883Z,98378.95
2022-08-05T16:32:35.536Z,98369.43
2022-08-05T16:35:28.416Z,98372.13
2022-08-05T16:38:23.731Z,98363.84
2022-08-05T16:44:54.276Z,98351.83
2022-08-05T16:47:48.310Z,98357.48
2022-08-05T16:50:29.745Z,98351.72
2022-08-05T16:53:22.662Z,98349.58
2022-08-05T16:56:08.185Z,98351.58
2022-08-05T16:58:57.637Z,98347.39
2022-08-05T17:01:53.708Z,98340.93
2022-08-05T17:04:34.014Z,98343.52
2022-08-05T17:07:38.881Z,98346.92
2022-08-05T17:10:11.025Z,98351.96
2022-08-05T17:12:58.364Z,98351.08
2022-08-05T17:15:48.524Z,98354.97
2022-08-05T17:18:35.609Z,98347.77
2022-08-05T17:21:24.721Z,98349.28
2022-08-05T17:24:28.461Z,98354.08
2022-08-05T17:27:01.455Z,98360.48
2022-08-05T17:29:59.643Z,98359.41
2022-08-05T17:32:38.321Z,98358.59
2022-08-05T17:35:32.653Z,98362.97
2022-08-05T17:38:17.873Z,98366.09
2022-08-05T17:41:05.583Z,98369.58
2022-08-05T17:43:54.993Z,98369.55
2022-08-05T17:46:42.787Z,98375.91
2022-08-05T17:49:59.714Z,98373.30
2022-08-05T17:52:19.946Z,98365.04
2022-08-05T17:55:11.148Z,98372.77
2022-08-05T17:58:00.258Z,98375.48
2022-08-05T18:00:50.658Z,98368.36
2022-08-05T18:03:56.033Z,98369.51
2022-08-05T18:06:29.223Z,98374.33
2022-08-05T18:09:16.304Z,98374.41
2022-08-05T18:12:03.873Z,98380.69
2022-08-05T18:14:51.769Z,98378.55
2022-08-05T18:18:00.795Z,98392.61
2022-08-05T18:20:29.520Z,98381.99
2022-08-05T18:23:17.561Z,98387.07
2022-08-05T18:26:05.601Z,98386.23
2022-08-05T18:28:53.691Z,98382.09
2022-08-05T18:31:43.114Z,98384.63
2022-08-05T18:34:40.661Z,98390.14
2022-08-05T18:37:34.229Z,98389.20
2022-08-05T18:40:34.315Z,98390.53
2022-08-05T18:42:59.066Z,98389.47
2022-08-05T18:45:47.617Z,98395.20
2022-08-05T18:48:41.623Z,98396.70
2022-08-05T18:52:06.303Z,98397.80
2022-08-05T18:54:32.816Z,98395.22
2022-08-05T18:57:25.562Z,98396.50
2022-08-05T19:00:19.940Z,98403.37
2022-08-05T19:03:03.372Z,98397.41
2022-08-05T19:06:13.217Z,98408.09
2022-08-05T19:08:39.697Z,98410.92
2022-08-05T19:11:37.134Z,98410.34
2022-08-05T19:14:53.551Z,98414.56
2022-08-05T19:17:07.788Z,98423.04
2022-08-05T19:19:56.216Z,98424.44
2022-08-05T19:22:46.011Z,98419.84
2022-08-05T19:25:43.409Z,98426.66
2022-08-05T19:28:24.551Z,98423.21
2022-08-05T19:31:18.024Z,98421.78
2022-08-05T19:34:07.666Z,98425.40
2022-08-05T19:36:57.444Z,98426.40
2022-08-05T19:39:51.014Z,98425.56
2022-08-05T19:42:36.501Z,98422.11
2022-08-05T19:45:25.598Z,98418.46
2022-08-05T19:48:14.613Z,98418.61
2022-08-05T19:51:05.097Z,98427.75
2022-08-05T19:54:03.743Z,98429.25
2022-08-05T19:56:44.272Z,98427.19
2022-08-05T19:59:54.966Z,98425.56
2022-08-05T20:02:26.353Z,98427.97
2022-08-05T20:05:16.686Z,98421.15
2022-08-05T20:08:04.234Z,98421.95
2022-08-05T20:10:53.932Z,98424.50
2022-08-05T20:13:58.525Z,98428.88
2022-08-05T20:16:31.329Z,98432.02
2022-08-05T20:19:21.298Z,98429.37
2022-08-05T20:22:13.280Z,98429.43
2022-08-05T20:25:00.536Z,98433.55
2022-08-05T20:27:48.291Z,98430.91
2022-08-05T20:30:37.946Z,98430.75
2022-08-05T20:33:25.050Z,98431.34
2022-08-05T20:36:14.369Z,98431.67
2022-08-05T20:39:03.425Z,98435.58
2022-08-05T20:41:51.084Z,98425.98
2022-08-05T20:44:39.025Z,98426.29
2022-08-05T20:47:32.347Z,98430.29
2022-08-05T20:50:17.410Z,98423.63
2022-08-05T20:53:05.937Z,98431.23
2022-08-05T20:56:08.350Z,98423.63
2022-08-05T20:58:44.442Z,98424.80
2022-08-05T21:01:38.557Z,98424.00
2022-08-05T21:04:21.755Z,98426.19
2022-08-05T21:07:11.060Z,98417.66
2022-08-05T21:10:01.019Z,98417.66
2022-08-05T21:12:57.673Z,98424.39
2022-08-05T21:15:38.801Z,98425.02
2022-08-05T21:18:26.584Z,98428.64
2022-08-05T21:21:14.097Z,98424.66
2022-08-05T21:24:01.633Z,98432.13
2022-08-05T21:26:58.455Z,98431.05
2022-08-05T21:29:40.801Z,98437.24
2022-08-05T21:32:29.715Z,98437.06
2022-08-05T21:35:30.095Z,98441.70
2022-08-05T21:38:06.505Z,98439.27
2022-08-05T21:40:55.059Z,98443.25
2022-08-05T21:43:42.818Z,98437.98
2022-08-05T21:46:34.607Z,98444.30
2022-08-05T21:49:56.893Z,98437.63
2022-08-05T21:52:21.573Z,98433.29
2022-08-05T21:55:06.284Z,98437.06
2022-08-05T21:57:50.802Z,98436.80
2022-08-05T22:00:40.106Z,98437.92
2022-08-05T22:03:52.018Z,98434.47
2022-08-05T22:06:22.866Z,98435.39
2022-08-05T22:09:14.667Z,98434.48
2022-08-05T22:11:55.826Z,98430.61
2022-08-05T22:14:44.308Z,98436.52
2022-08-05T22:17:32.113Z,98434.67
2022-08-05T22:20:21.106Z,98433.73
2022-08-05T22:24:02.270Z,98438.34
2022-08-05T22:26:35.802Z,98440.19
2022-08-05T22:29:26.905Z,98439.73
2022-08-05T22:32:22.931Z,98439.42
2022-08-05T22:35:03.266Z,98440.09
2022-08-05T22:37:59.103Z,98438.06
2022-08-05T22:40:41.049Z,98441.80
2022-08-05T22:43:37.124Z,98439.39
2022-08-05T22:46:21.046Z,98434.61
2022-08-05T22:50:17.165Z,98429.83
2022-08-05T22:52:07.180Z,98433.53
2022-08-05T22:54:51.194Z,98434.57
2022-08-05T22:57:38.353Z,98433.34
2022-08-05T23:00:26.777Z,98430.91
2022-08-05T23:03:14.613Z,98430.69
2022-08-05T23:06:02.049Z,98430.80
2022-08-05T23:08:50.429Z,98432.11
2022-08-05T23:11:38.592Z,98430.27
2022-08-05T23:14:31.765Z,98425.38
2022-08-05T23:17:34.886Z,98424.70
2022-08-05T23:20:17.617Z,98420.30
2022-08-05T23:23:08.079Z,98415.73
2022-08-05T23:25:55.241Z,98413.33
2022-08-05T23:28:43.135Z,98417.65
2022-08-05T23:31:30.595Z,98417.81
2022-08-05T23:34:24.852Z,98413.94
2022-08-05T23:37:08.097Z,98417.45
2022-08-05T23:39:57.179Z,98418.64
2022-08-05T23:42:47.266Z,98420.17
2022-08-05T23:45:33.905Z,98419.37
2022-08-05T23:48:23.033Z,98421.73
2022-08-05T23:51:12.187Z,98423.86
2022-08-05T23:54:01.455Z,98425.04
2022-08-05T23:56:49.225Z,98414.89
